sensor_id;sensor_type;location;lat;lon;timestamp;P1;durP1;ratioP1;P2;durP2;ratioP2
48161;SDS011;33950;48.154;16.316;2022-12-29T00:01:39;35.28;;;16.02;;
48161;SDS011;33950;48.154;16.316;2022-12-29T00:04:32;43.88;;;17.70;;
48161;SDS011;33950;48.154;16.316;2022-12-29T00:07:23;42.08;;;17.42;;
48161;SDS011;33950;48.154;16.316;2022-12-29T00:10:10;38.08;;;15.93;;
48161;SDS011;33950;48.154;16.316;2022-12-29T00:12:56;40.20;;;17.60;;
48161;SDS011;33950;48.154;16.316;2022-12-29T00:16:01;47.33;;;18.95;;
48161;SDS011;33950;48.154;16.316;2022-12-29T00:18:48;41.97;;;18.60;;
48161;SDS011;33950;48.154;16.316;2022-12-29T00:21:35;50.70;;;17.40;;
48161;SDS011;33950;48.154;16.316;2022-12-29T00:24:39;37.75;;;16.77;;
48161;SDS011;33950;48.154;16.316;2022-12-29T00:27:44;32.88;;;15.90;;
48161;SDS011;33950;48.154;16.316;2022-12-29T00:30:48;32.42;;;16.20;;
48161;SDS011;33950;48.154;16.316;2022-12-29T00:33:54;38.80;;;15.90;;
48161;SDS011;33950;48.154;16.316;2022-12-29T00:36:59;38.92;;;15.93;;
48161;SDS011;33950;48.154;16.316;2022-12-29T00:39:46;39.25;;;16.85;;
48161;SDS011;33950;48.154;16.316;2022-12-29T00:42:50;38.63;;;16.45;;
48161;SDS011;33950;48.154;16.316;2022-12-29T00:45:55;42.45;;;16.60;;
48161;SDS011;33950;48.154;16.316;2022-12-29T00:48:41;38.10;;;17.00;;
48161;SDS011;33950;48.154;16.316;2022-12-29T00:51:47;33.60;;;15.02;;
48161;SDS011;33950;48.154;16.316;2022-12-29T00:54:36;42.05;;;15.63;;
48161;SDS011;33950;48.154;16.316;2022-12-29T00:57:23;29.90;;;14.00;;
48161;SDS011;33950;48.154;16.316;2022-12-29T01:00:10;33.08;;;15.32;;
48161;SDS011;33950;48.154;16.316;2022-12-29T01:02:57;41.25;;;14.63;;
48161;SDS011;33950;48.154;16.316;2022-12-29T01:05:43;32.80;;;13.90;;
48161;SDS011;33950;48.154;16.316;2022-12-29T01:08:31;30.65;;;13.40;;
48161;SDS011;33950;48.154;16.316;2022-12-29T01:11:17;35.88;;;15.43;;
48161;SDS011;33950;48.154;16.316;2022-12-29T01:14:03;36.45;;;15.60;;
48161;SDS011;33950;48.154;16.316;2022-12-29T01:16:50;35.55;;;15.90;;
48161;SDS011;33950;48.154;16.316;2022-12-29T01:19:37;35.05;;;15.40;;
48161;SDS011;33950;48.154;16.316;2022-12-29T01:22:23;34.30;;;14.98;;
48161;SDS011;33950;48.154;16.316;2022-12-29T01:25:10;43.38;;;15.13;;
48161;SDS011;33950;48.154;16.316;2022-12-29T01:27:56;33.58;;;15.77;;
48161;SDS011;33950;48.154;16.316;2022-12-29T01:30:42;37.67;;;15.43;;
48161;SDS011;33950;48.154;16.316;2022-12-29T01:33:29;37.65;;;15.50;;
48161;SDS011;33950;48.154;16.316;2022-12-29T01:36:16;38.33;;;15.60;;
48161;SDS011;33950;48.154;16.316;2022-12-29T01:39:03;36.88;;;15.90;;
48161;SDS011;33950;48.154;16.316;2022-12-29T01:41:50;31.17;;;13.95;;
48161;SDS011;33950;48.154;16.316;2022-12-29T01:44:50;32.72;;;15.50;;
48161;SDS011;33950;48.154;16.316;2022-12-29T01:47:39;37.22;;;14.75;;
48161;SDS011;33950;48.154;16.316;2022-12-29T01:50:29;37.45;;;16.35;;
48161;SDS011;33950;48.154;16.316;2022-12-29T01:53:18;32.95;;;15.07;;
48161;SDS011;33950;48.154;16.316;2022-12-29T01:56:07;33.90;;;14.38;;
48161;SDS011;33950;48.154;16.316;2022-12-29T01:58:59;40.10;;;14.73;;
48161;SDS011;33950;48.154;16.316;2022-12-29T02:01:50;25.15;;;12.93;;
48161;SDS011;33950;48.154;16.316;2022-12-29T02:04:36;29.70;;;13.90;;
48161;SDS011;33950;48.154;16.316;2022-12-29T02:07:29;36.22;;;15.05;;
48161;SDS011;33950;48.154;16.316;2022-12-29T02:10:17;30.98;;;14.50;;
48161;SDS011;33950;48.154;16.316;2022-12-29T02:13:04;31.02;;;14.15;;
48161;SDS011;33950;48.154;16.316;2022-12-29T02:15:54;33.30;;;14.57;;
48161;SDS011;33950;48.154;16.316;2022-12-29T02:18:49;34.42;;;14.68;;
48161;SDS011;33950;48.154;16.316;2022-12-29T02:21:52;32.80;;;15.07;;
48161;SDS011;33950;48.154;16.316;2022-12-29T02:25:05;40.97;;;14.48;;
48161;SDS011;33950;48.154;16.316;2022-12-29T02:31:48;38.95;;;15.07;;
48161;SDS011;33950;48.154;16.316;2022-12-29T02:34:42;33.42;;;15.50;;
48161;SDS011;33950;48.154;16.316;2022-12-29T02:37:39;34.38;;;14.55;;
48161;SDS011;33950;48.154;16.316;2022-12-29T02:40:31;29.73;;;14.27;;
48161;SDS011;33950;48.154;16.316;2022-12-29T02:43:25;29.98;;;14.25;;
48161;SDS011;33950;48.154;16.316;2022-12-29T02:46:19;30.70;;;13.90;;
48161;SDS011;33950;48.154;16.316;2022-12-29T02:49:15;35.55;;;14.10;;
48161;SDS011;33950;48.154;16.316;2022-12-29T02:54:53;34.95;;;15.02;;
48161;SDS011;33950;48.154;16.316;2022-12-29T02:57:39;30.10;;;13.45;;
48161;SDS011;33950;48.154;16.316;2022-12-29T03:00:25;34.92;;;15.35;;
48161;SDS011;33950;48.154;16.316;2022-12-29T03:03:15;31.77;;;14.50;;
48161;SDS011;33950;48.154;16.316;2022-12-29T03:06:18;33.67;;;15.05;;
48161;SDS011;33950;48.154;16.316;2022-12-29T03:09:17;34.67;;;15.23;;
48161;SDS011;33950;48.154;16.316;2022-12-29T03:12:13;32.28;;;13.30;;
48161;SDS011;33950;48.154;16.316;2022-12-29T03:15:09;32.53;;;15.45;;
48161;SDS011;33950;48.154;16.316;2022-12-29T03:18:19;29.15;;;14.07;;
48161;SDS011;33950;48.154;16.316;2022-12-29T03:21:09;30.40;;;13.95;;
48161;SDS011;33950;48.154;16.316;2022-12-29T03:24:01;35.28;;;16.45;;
48161;SDS011;33950;48.154;16.316;2022-12-29T03:26:48;34.40;;;14.82;;
48161;SDS011;33950;48.154;16.316;2022-12-29T03:29:39;31.38;;;14.93;;
48161;SDS011;33950;48.154;16.316;2022-12-29T03:32:31;35.72;;;14.60;;
48161;SDS011;33950;48.154;16.316;2022-12-29T03:35:21;33.60;;;13.43;;
48161;SDS011;33950;48.154;16.316;2022-12-29T03:38:11;33.22;;;13.65;;
48161;SDS011;33950;48.154;16.316;2022-12-29T03:41:04;24.65;;;10.00;;
48161;SDS011;33950;48.154;16.316;2022-12-29T03:43:53;28.70;;;13.07;;
48161;SDS011;33950;48.154;16.316;2022-12-29T03:46:39;37.33;;;13.55;;
48161;SDS011;33950;48.154;16.316;2022-12-29T03:49:25;30.65;;;13.23;;
48161;SDS011;33950;48.154;16.316;2022-12-29T03:52:11;30.67;;;13.27;;
48161;SDS011;33950;48.154;16.316;2022-12-29T03:54:57;34.80;;;13.13;;
48161;SDS011;33950;48.154;16.316;2022-12-29T03:57:44;29.42;;;13.50;;
48161;SDS011;33950;48.154;16.316;2022-12-29T04:00:30;28.58;;;13.48;;
48161;SDS011;33950;48.154;16.316;2022-12-29T04:03:17;29.20;;;13.52;;
48161;SDS011;33950;48.154;16.316;2022-12-29T04:06:03;30.55;;;14.68;;
48161;SDS011;33950;48.154;16.316;2022-12-29T04:08:49;28.15;;;14.00;;
48161;SDS011;33950;48.154;16.316;2022-12-29T04:11:35;26.75;;;11.48;;
48161;SDS011;33950;48.154;16.316;2022-12-29T04:14:23;32.13;;;13.45;;
48161;SDS011;33950;48.154;16.316;2022-12-29T04:17:09;29.27;;;12.60;;
48161;SDS011;33950;48.154;16.316;2022-12-29T04:19:55;27.30;;;13.00;;
48161;SDS011;33950;48.154;16.316;2022-12-29T04:23:01;33.55;;;13.30;;
48161;SDS011;33950;48.154;16.316;2022-12-29T04:25:47;28.30;;;12.65;;
48161;SDS011;33950;48.154;16.316;2022-12-29T04:28:34;28.05;;;12.60;;
48161;SDS011;33950;48.154;16.316;2022-12-29T04:31:21;31.08;;;13.60;;
48161;SDS011;33950;48.154;16.316;2022-12-29T04:34:08;29.25;;;13.20;;
48161;SDS011;33950;48.154;16.316;2022-12-29T04:36:54;25.92;;;12.70;;
48161;SDS011;33950;48.154;16.316;2022-12-29T04:39:40;26.58;;;13.45;;
48161;SDS011;33950;48.154;16.316;2022-12-29T04:42:26;23.55;;;11.35;;
48161;SDS011;33950;48.154;16.316;2022-12-29T04:45:12;33.28;;;14.00;;
48161;SDS011;33950;48.154;16.316;2022-12-29T04:47:59;31.27;;;13.60;;
48161;SDS011;33950;48.154;16.316;2022-12-29T04:50:46;32.90;;;14.50;;
48161;SDS011;33950;48.154;16.316;2022-12-29T04:53:34;32.08;;;14.93;;
48161;SDS011;33950;48.154;16.316;2022-12-29T04:56:20;31.30;;;14.18;;
48161;SDS011;33950;48.154;16.316;2022-12-29T04:59:06;28.00;;;13.10;;
48161;SDS011;33950;48.154;16.316;2022-12-29T05:01:52;33.25;;;14.93;;
48161;SDS011;33950;48.154;16.316;2022-12-29T05:04:39;31.17;;;14.98;;
48161;SDS011;33950;48.154;16.316;2022-12-29T05:07:25;34.63;;;13.48;;
48161;SDS011;33950;48.154;16.316;2022-12-29T05:10:12;29.35;;;15.35;;
48161;SDS011;33950;48.154;16.316;2022-12-29T05:12:58;28.55;;;13.57;;
48161;SDS011;33950;48.154;16.316;2022-12-29T05:15:46;34.85;;;14.02;;
48161;SDS011;33950;48.154;16.316;2022-12-29T05:18:34;31.77;;;13.88;;
48161;SDS011;33950;48.154;16.316;2022-12-29T05:21:22;34.75;;;13.63;;
48161;SDS011;33950;48.154;16.316;2022-12-29T05:24:08;35.28;;;14.70;;
48161;SDS011;33950;48.154;16.316;2022-12-29T05:26:54;27.63;;;14.23;;
48161;SDS011;33950;48.154;16.316;2022-12-29T05:29:40;30.40;;;13.82;;
48161;SDS011;33950;48.154;16.316;2022-12-29T05:32:26;34.75;;;14.95;;
48161;SDS011;33950;48.154;16.316;2022-12-29T05:35:12;37.08;;;15.50;;
48161;SDS011;33950;48.154;16.316;2022-12-29T05:38:00;37.42;;;14.25;;
48161;SDS011;33950;48.154;16.316;2022-12-29T05:40:46;26.45;;;12.45;;
48161;SDS011;33950;48.154;16.316;2022-12-29T05:43:32;27.17;;;12.48;;
48161;SDS011;33950;48.154;16.316;2022-12-29T05:46:18;38.05;;;14.90;;
48161;SDS011;33950;48.154;16.316;2022-12-29T05:49:04;27.73;;;14.02;;
48161;SDS011;33950;48.154;16.316;2022-12-29T05:51:50;33.28;;;13.57;;
48161;SDS011;33950;48.154;16.316;2022-12-29T05:54:38;32.13;;;13.30;;
48161;SDS011;33950;48.154;16.316;2022-12-29T05:57:24;27.67;;;13.38;;
48161;SDS011;33950;48.154;16.316;2022-12-29T06:00:10;30.55;;;13.77;;
48161;SDS011;33950;48.154;16.316;2022-12-29T06:02:57;30.88;;;14.52;;
48161;SDS011;33950;48.154;16.316;2022-12-29T06:05:44;33.58;;;14.02;;
48161;SDS011;33950;48.154;16.316;2022-12-29T06:08:31;36.20;;;14.95;;
48161;SDS011;33950;48.154;16.316;2022-12-29T06:11:18;30.17;;;14.52;;
48161;SDS011;33950;48.154;16.316;2022-12-29T06:14:04;30.10;;;13.85;;
48161;SDS011;33950;48.154;16.316;2022-12-29T06:16:50;34.53;;;13.52;;
48161;SDS011;33950;48.154;16.316;2022-12-29T06:19:36;32.30;;;13.80;;
48161;SDS011;33950;48.154;16.316;2022-12-29T06:22:22;27.50;;;12.43;;
48161;SDS011;33950;48.154;16.316;2022-12-29T06:25:09;28.40;;;13.00;;
48161;SDS011;33950;48.154;16.316;2022-12-29T06:27:56;31.35;;;13.77;;
48161;SDS011;33950;48.154;16.316;2022-12-29T06:30:43;31.70;;;13.20;;
48161;SDS011;33950;48.154;16.316;2022-12-29T06:33:30;28.65;;;13.25;;
48161;SDS011;33950;48.154;16.316;2022-12-29T06:36:16;33.50;;;15.32;;
48161;SDS011;33950;48.154;16.316;2022-12-29T06:39:02;28.27;;;13.52;;
48161;SDS011;33950;48.154;16.316;2022-12-29T06:41:51;30.77;;;14.38;;
48161;SDS011;33950;48.154;16.316;2022-12-29T06:44:39;33.58;;;15.30;;
48161;SDS011;33950;48.154;16.316;2022-12-29T06:47:25;33.17;;;13.73;;
48161;SDS011;33950;48.154;16.316;2022-12-29T06:50:11;29.55;;;13.20;;
48161;SDS011;33950;48.154;16.316;2022-12-29T06:52:57;31.73;;;14.18;;
48161;SDS011;33950;48.154;16.316;2022-12-29T06:55:43;33.58;;;14.48;;
48161;SDS011;33950;48.154;16.316;2022-12-29T06:58:29;38.13;;;15.82;;
48161;SDS011;33950;48.154;16.316;2022-12-29T07:01:17;41.35;;;14.30;;
48161;SDS011;33950;48.154;16.316;2022-12-29T07:04:03;44.03;;;17.15;;
48161;SDS011;33950;48.154;16.316;2022-12-29T07:06:49;50.00;;;16.55;;
48161;SDS011;33950;48.154;16.316;2022-12-29T07:09:35;44.22;;;15.60;;
48161;SDS011;33950;48.154;16.316;2022-12-29T07:12:21;35.28;;;14.15;;
48161;SDS011;33950;48.154;16.316;2022-12-29T07:15:08;39.38;;;14.40;;
48161;SDS011;33950;48.154;16.316;2022-12-29T07:17:55;32.75;;;12.88;;
48161;SDS011;33950;48.154;16.316;2022-12-29T07:20:42;37.47;;;12.70;;
48161;SDS011;33950;48.154;16.316;2022-12-29T07:23:28;27.42;;;12.82;;
48161;SDS011;33950;48.154;16.316;2022-12-29T07:26:14;37.35;;;14.50;;
48161;SDS011;33950;48.154;16.316;2022-12-29T07:29:03;35.17;;;14.25;;
48161;SDS011;33950;48.154;16.316;2022-12-29T07:31:49;39.60;;;15.52;;
48161;SDS011;33950;48.154;16.316;2022-12-29T07:34:37;36.28;;;14.15;;
48161;SDS011;33950;48.154;16.316;2022-12-29T07:37:24;43.40;;;17.15;;
48161;SDS011;33950;48.154;16.316;2022-12-29T07:40:11;35.30;;;15.60;;
48161;SDS011;33950;48.154;16.316;2022-12-29T07:42:58;43.13;;;17.15;;
48161;SDS011;33950;48.154;16.316;2022-12-29T07:45:44;40.67;;;16.70;;
48161;SDS011;33950;48.154;16.316;2022-12-29T07:48:30;40.50;;;17.85;;
48161;SDS011;33950;48.154;16.316;2022-12-29T07:51:17;57.63;;;20.00;;
48161;SDS011;33950;48.154;16.316;2022-12-29T07:54:04;62.70;;;22.17;;
48161;SDS011;33950;48.154;16.316;2022-12-29T07:56:50;48.50;;;19.25;;
48161;SDS011;33950;48.154;16.316;2022-12-29T07:59:36;53.97;;;20.02;;
48161;SDS011;33950;48.154;16.316;2022-12-29T08:02:22;58.60;;;19.80;;
48161;SDS011;33950;48.154;16.316;2022-12-29T08:05:08;56.83;;;21.48;;
48161;SDS011;33950;48.154;16.316;2022-12-29T08:07:56;67.22;;;23.48;;
48161;SDS011;33950;48.154;16.316;2022-12-29T08:10:42;56.72;;;22.10;;
48161;SDS011;33950;48.154;16.316;2022-12-29T08:13:28;58.55;;;21.58;;
48161;SDS011;33950;48.154;16.316;2022-12-29T08:16:14;77.18;;;24.42;;
48161;SDS011;33950;48.154;16.316;2022-12-29T08:19:00;68.72;;;23.25;;
48161;SDS011;33950;48.154;16.316;2022-12-29T08:21:47;64.15;;;23.02;;
48161;SDS011;33950;48.154;16.316;2022-12-29T08:24:34;67.95;;;25.08;;
48161;SDS011;33950;48.154;16.316;2022-12-29T08:27:20;74.38;;;22.15;;
48161;SDS011;33950;48.154;16.316;2022-12-29T08:30:07;65.70;;;23.70;;
48161;SDS011;33950;48.154;16.316;2022-12-29T08:32:54;67.63;;;24.92;;
48161;SDS011;33950;48.154;16.316;2022-12-29T08:35:40;74.88;;;23.48;;
48161;SDS011;33950;48.154;16.316;2022-12-29T08:38:27;77.30;;;25.38;;
48161;SDS011;33950;48.154;16.316;2022-12-29T08:41:15;78.93;;;23.65;;
48161;SDS011;33950;48.154;16.316;2022-12-29T08:44:01;77.30;;;24.25;;
48161;SDS011;33950;48.154;16.316;2022-12-29T08:46:48;57.65;;;21.35;;
48161;SDS011;33950;48.154;16.316;2022-12-29T08:49:34;67.95;;;23.25;;
48161;SDS011;33950;48.154;16.316;2022-12-29T08:52:20;64.25;;;22.80;;
48161;SDS011;33950;48.154;16.316;2022-12-29T08:55:06;62.45;;;22.38;;
48161;SDS011;33950;48.154;16.316;2022-12-29T08:57:54;57.95;;;22.48;;
48161;SDS011;33950;48.154;16.316;2022-12-29T09:00:40;65.60;;;24.25;;
48161;SDS011;33950;48.154;16.316;2022-12-29T09:03:27;70.30;;;24.65;;
48161;SDS011;33950;48.154;16.316;2022-12-29T09:06:13;58.88;;;23.67;;
48161;SDS011;33950;48.154;16.316;2022-12-29T09:09:00;61.17;;;23.17;;
48161;SDS011;33950;48.154;16.316;2022-12-29T09:11:46;62.30;;;24.67;;
48161;SDS011;33950;48.154;16.316;2022-12-29T09:14:33;68.05;;;23.83;;
48161;SDS011;33950;48.154;16.316;2022-12-29T09:17:19;65.57;;;23.08;;
48161;SDS011;33950;48.154;16.316;2022-12-29T09:20:24;49.80;;;20.90;;
48161;SDS011;33950;48.154;16.316;2022-12-29T09:23:10;48.47;;;19.60;;
48161;SDS011;33950;48.154;16.316;2022-12-29T09:25:56;40.75;;;18.13;;
48161;SDS011;33950;48.154;16.316;2022-12-29T09:28:43;47.08;;;19.13;;
48161;SDS011;33950;48.154;16.316;2022-12-29T09:31:31;50.15;;;18.98;;
48161;SDS011;33950;48.154;16.316;2022-12-29T09:34:17;45.95;;;18.05;;
48161;SDS011;33950;48.154;16.316;2022-12-29T09:37:03;60.70;;;20.48;;
48161;SDS011;33950;48.154;16.316;2022-12-29T09:39:49;49.47;;;19.77;;
48161;SDS011;33950;48.154;16.316;2022-12-29T09:42:37;60.45;;;20.13;;
48161;SDS011;33950;48.154;16.316;2022-12-29T09:45:27;47.88;;;18.65;;
48161;SDS011;33950;48.154;16.316;2022-12-29T09:48:25;43.83;;;18.55;;
48161;SDS011;33950;48.154;16.316;2022-12-29T09:54:02;62.78;;;21.23;;
48161;SDS011;33950;48.154;16.316;2022-12-29T09:57:03;41.25;;;19.52;;
48161;SDS011;33950;48.154;16.316;2022-12-29T09:59:50;65.80;;;21.42;;
48161;SDS011;33950;48.154;16.316;2022-12-29T10:02:42;52.17;;;20.38;;
48161;SDS011;33950;48.154;16.316;2022-12-29T10:05:33;48.08;;;20.20;;
48161;SDS011;33950;48.154;16.316;2022-12-29T10:08:27;54.40;;;22.27;;
48161;SDS011;33950;48.154;16.316;2022-12-29T10:11:23;56.33;;;22.85;;
48161;SDS011;33950;48.154;16.316;2022-12-29T10:14:23;67.07;;;22.35;;
48161;SDS011;33950;48.154;16.316;2022-12-29T10:20:23;66.15;;;22.55;;
48161;SDS011;33950;48.154;16.316;2022-12-29T10:23:22;63.58;;;23.00;;
48161;SDS011;33950;48.154;16.316;2022-12-29T10:26:14;89.38;;;24.55;;
48161;SDS011;33950;48.154;16.316;2022-12-29T10:29:03;76.88;;;24.27;;
48161;SDS011;33950;48.154;16.316;2022-12-29T10:31:54;72.35;;;26.17;;
48161;SDS011;33950;48.154;16.316;2022-12-29T10:34:44;66.18;;;23.88;;
48161;SDS011;33950;48.154;16.316;2022-12-29T10:37:34;73.38;;;24.08;;
48161;SDS011;33950;48.154;16.316;2022-12-29T10:40:31;65.80;;;24.30;;
48161;SDS011;33950;48.154;16.316;2022-12-29T10:43:24;73.20;;;28.23;;
48161;SDS011;33950;48.154;16.316;2022-12-29T10:46:13;76.60;;;26.50;;
48161;SDS011;33950;48.154;16.316;2022-12-29T10:49:03;86.15;;;26.60;;
48161;SDS011;33950;48.154;16.316;2022-12-29T10:51:51;104.28;;;25.58;;
48161;SDS011;33950;48.154;16.316;2022-12-29T10:54:43;73.78;;;27.25;;
48161;SDS011;33950;48.154;16.316;2022-12-29T10:57:33;71.95;;;26.00;;
48161;SDS011;33950;48.154;16.316;2022-12-29T11:00:22;70.53;;;27.95;;
48161;SDS011;33950;48.154;16.316;2022-12-29T11:03:16;73.80;;;27.13;;
48161;SDS011;33950;48.154;16.316;2022-12-29T11:06:31;74.63;;;27.05;;
48161;SDS011;33950;48.154;16.316;2022-12-29T11:09:22;72.45;;;27.05;;
48161;SDS011;33950;48.154;16.316;2022-12-29T11:12:19;66.63;;;25.80;;
48161;SDS011;33950;48.154;16.316;2022-12-29T11:15:14;86.03;;;26.30;;
48161;SDS011;33950;48.154;16.316;2022-12-29T11:18:01;88.80;;;25.70;;
48161;SDS011;33950;48.154;16.316;2022-12-29T11:20:47;90.13;;;27.50;;
48161;SDS011;33950;48.154;16.316;2022-12-29T11:23:36;79.65;;;28.30;;
48161;SDS011;33950;48.154;16.316;2022-12-29T11:26:23;162.27;;;33.20;;
48161;SDS011;33950;48.154;16.316;2022-12-29T11:29:17;83.10;;;27.58;;
48161;SDS011;33950;48.154;16.316;2022-12-29T11:32:11;137.95;;;29.77;;
48161;SDS011;33950;48.154;16.316;2022-12-29T11:35:02;102.72;;;28.92;;
48161;SDS011;33950;48.154;16.316;2022-12-29T11:37:53;88.72;;;29.27;;
48161;SDS011;33950;48.154;16.316;2022-12-29T11:40:58;85.30;;;28.15;;
48161;SDS011;33950;48.154;16.316;2022-12-29T11:43:44;108.35;;;30.00;;
48161;SDS011;33950;48.154;16.316;2022-12-29T11:46:33;80.72;;;30.90;;
48161;SDS011;33950;48.154;16.316;2022-12-29T11:49:24;81.57;;;29.13;;
48161;SDS011;33950;48.154;16.316;2022-12-29T11:52:12;94.18;;;30.60;;
48161;SDS011;33950;48.154;16.316;2022-12-29T11:54:58;81.35;;;30.00;;
48161;SDS011;33950;48.154;16.316;2022-12-29T11:57:46;80.78;;;29.77;;
48161;SDS011;33950;48.154;16.316;2022-12-29T12:00:34;95.22;;;33.88;;
48161;SDS011;33950;48.154;16.316;2022-12-29T12:03:25;93.63;;;33.00;;
48161;SDS011;33950;48.154;16.316;2022-12-29T12:06:19;81.20;;;29.35;;
48161;SDS011;33950;48.154;16.316;2022-12-29T12:09:21;79.70;;;28.33;;
48161;SDS011;33950;48.154;16.316;2022-12-29T12:12:15;93.68;;;30.63;;
48161;SDS011;33950;48.154;16.316;2022-12-29T12:15:08;91.68;;;31.13;;
48161;SDS011;33950;48.154;16.316;2022-12-29T12:18:03;83.47;;;30.58;;
48161;SDS011;33950;48.154;16.316;2022-12-29T12:20:56;92.00;;;33.53;;
48161;SDS011;33950;48.154;16.316;2022-12-29T12:24:07;95.97;;;31.58;;
48161;SDS011;33950;48.154;16.316;2022-12-29T12:27:07;117.05;;;33.00;;
48161;SDS011;33950;48.154;16.316;2022-12-29T12:29:59;95.68;;;32.90;;
48161;SDS011;33950;48.154;16.316;2022-12-29T12:32:50;109.45;;;31.48;;
48161;SDS011;33950;48.154;16.316;2022-12-29T12:35:42;94.85;;;33.00;;
48161;SDS011;33950;48.154;16.316;2022-12-29T12:38:37;92.22;;;32.85;;
48161;SDS011;33950;48.154;16.316;2022-12-29T12:41:36;98.03;;;31.90;;
48161;SDS011;33950;48.154;16.316;2022-12-29T12:44:33;96.75;;;31.77;;
48161;SDS011;33950;48.154;16.316;2022-12-29T12:47:37;82.50;;;30.45;;
48161;SDS011;33950;48.154;16.316;2022-12-29T12:50:42;93.82;;;32.53;;
48161;SDS011;33950;48.154;16.316;2022-12-29T12:53:38;90.55;;;30.98;;
48161;SDS011;33950;48.154;16.316;2022-12-29T12:56:37;76.32;;;30.88;;
48161;SDS011;33950;48.154;16.316;2022-12-29T12:59:36;83.75;;;29.55;;
48161;SDS011;33950;48.154;16.316;2022-12-29T13:02:36;84.68;;;30.27;;
48161;SDS011;33950;48.154;16.316;2022-12-29T13:05:35;74.93;;;29.63;;
48161;SDS011;33950;48.154;16.316;2022-12-29T13:11:30;72.60;;;28.63;;
48161;SDS011;33950;48.154;16.316;2022-12-29T13:14:34;72.40;;;28.42;;
48161;SDS011;33950;48.154;16.316;2022-12-29T13:17:29;71.80;;;28.20;;
48161;SDS011;33950;48.154;16.316;2022-12-29T13:20:24;69.88;;;27.80;;
48161;SDS011;33950;48.154;16.316;2022-12-29T13:23:16;72.85;;;29.05;;
48161;SDS011;33950;48.154;16.316;2022-12-29T13:26:12;70.30;;;27.33;;
48161;SDS011;33950;48.154;16.316;2022-12-29T13:29:08;62.72;;;26.77;;
48161;SDS011;33950;48.154;16.316;2022-12-29T13:32:06;71.97;;;28.55;;
48161;SDS011;33950;48.154;16.316;2022-12-29T13:35:11;70.32;;;27.98;;
48161;SDS011;33950;48.154;16.316;2022-12-29T13:38:10;65.82;;;26.63;;
48161;SDS011;33950;48.154;16.316;2022-12-29T13:41:00;70.97;;;28.48;;
48161;SDS011;33950;48.154;16.316;2022-12-29T13:43:49;71.95;;;28.00;;
48161;SDS011;33950;48.154;16.316;2022-12-29T13:46:39;68.55;;;27.98;;
48161;SDS011;33950;48.154;16.316;2022-12-29T13:49:28;68.33;;;28.10;;
48161;SDS011;33950;48.154;16.316;2022-12-29T13:52:16;71.30;;;27.83;;
48161;SDS011;33950;48.154;16.316;2022-12-29T13:55:16;72.22;;;29.05;;
48161;SDS011;33950;48.154;16.316;2022-12-29T13:58:11;69.05;;;27.42;;
48161;SDS011;33950;48.154;16.316;2022-12-29T14:01:00;70.63;;;27.08;;
48161;SDS011;33950;48.154;16.316;2022-12-29T14:03:56;67.13;;;28.15;;
48161;SDS011;33950;48.154;16.316;2022-12-29T14:06:43;69.97;;;29.35;;
48161;SDS011;33950;48.154;16.316;2022-12-29T14:09:40;68.93;;;28.20;;
48161;SDS011;33950;48.154;16.316;2022-12-29T14:12:30;62.38;;;27.50;;
48161;SDS011;33950;48.154;16.316;2022-12-29T14:15:21;76.93;;;30.23;;
48161;SDS011;33950;48.154;16.316;2022-12-29T14:18:11;72.03;;;28.33;;
48161;SDS011;33950;48.154;16.316;2022-12-29T14:21:01;64.72;;;28.33;;
48161;SDS011;33950;48.154;16.316;2022-12-29T14:23:54;64.88;;;27.48;;
48161;SDS011;33950;48.154;16.316;2022-12-29T14:29:44;65.35;;;27.10;;
48161;SDS011;33950;48.154;16.316;2022-12-29T14:32:38;64.68;;;26.20;;
48161;SDS011;33950;48.154;16.316;2022-12-29T14:38:29;70.70;;;26.80;;
48161;SDS011;33950;48.154;16.316;2022-12-29T14:41:17;68.57;;;27.85;;
48161;SDS011;33950;48.154;16.316;2022-12-29T14:44:15;65.85;;;26.67;;
48161;SDS011;33950;48.154;16.316;2022-12-29T14:47:05;69.72;;;26.48;;
48161;SDS011;33950;48.154;16.316;2022-12-29T14:49:53;67.20;;;27.80;;
48161;SDS011;33950;48.154;16.316;2022-12-29T14:52:42;76.05;;;29.40;;
48161;SDS011;33950;48.154;16.316;2022-12-29T14:55:38;74.00;;;30.50;;
48161;SDS011;33950;48.154;16.316;2022-12-29T14:58:26;72.22;;;27.85;;
48161;SDS011;33950;48.154;16.316;2022-12-29T15:01:17;74.40;;;28.98;;
48161;SDS011;33950;48.154;16.316;2022-12-29T15:04:14;67.97;;;28.48;;
48161;SDS011;33950;48.154;16.316;2022-12-29T15:07:04;69.90;;;29.27;;
48161;SDS011;33950;48.154;16.316;2022-12-29T15:09:54;68.43;;;27.33;;
48161;SDS011;33950;48.154;16.316;2022-12-29T15:12:47;70.05;;;29.60;;
48161;SDS011;33950;48.154;16.316;2022-12-29T15:15:38;69.80;;;29.05;;
48161;SDS011;33950;48.154;16.316;2022-12-29T15:18:25;82.43;;;30.35;;
48161;SDS011;33950;48.154;16.316;2022-12-29T15:21:12;81.97;;;30.45;;
48161;SDS011;33950;48.154;16.316;2022-12-29T15:24:00;68.45;;;28.83;;
48161;SDS011;33950;48.154;16.316;2022-12-29T15:26:49;73.80;;;29.33;;
48161;SDS011;33950;48.154;16.316;2022-12-29T15:29:39;66.50;;;28.42;;
48161;SDS011;33950;48.154;16.316;2022-12-29T15:32:26;68.00;;;29.52;;
48161;SDS011;33950;48.154;16.316;2022-12-29T15:35:24;64.68;;;28.35;;
48161;SDS011;33950;48.154;16.316;2022-12-29T15:38:16;64.30;;;27.90;;
48161;SDS011;33950;48.154;16.316;2022-12-29T15:41:13;64.63;;;28.85;;
48161;SDS011;33950;48.154;16.316;2022-12-29T15:44:10;71.15;;;29.33;;
48161;SDS011;33950;48.154;16.316;2022-12-29T15:47:04;69.43;;;29.40;;
48161;SDS011;33950;48.154;16.316;2022-12-29T15:49:52;73.95;;;29.38;;
48161;SDS011;33950;48.154;16.316;2022-12-29T15:52:42;63.75;;;27.67;;
48161;SDS011;33950;48.154;16.316;2022-12-29T15:55:30;65.55;;;28.35;;
48161;SDS011;33950;48.154;16.316;2022-12-29T15:58:20;70.15;;;29.58;;
48161;SDS011;33950;48.154;16.316;2022-12-29T16:01:15;69.57;;;30.45;;
48161;SDS011;33950;48.154;16.316;2022-12-29T16:04:05;66.68;;;29.13;;
48161;SDS011;33950;48.154;16.316;2022-12-29T16:06:54;66.10;;;28.00;;
48161;SDS011;33950;48.154;16.316;2022-12-29T16:09:42;67.57;;;28.85;;
48161;SDS011;33950;48.154;16.316;2022-12-29T16:12:30;68.63;;;29.75;;
48161;SDS011;33950;48.154;16.316;2022-12-29T16:15:18;74.88;;;31.40;;
48161;SDS011;33950;48.154;16.316;2022-12-29T16:18:04;69.85;;;29.45;;
48161;SDS011;33950;48.154;16.316;2022-12-29T16:20:52;64.55;;;29.83;;
48161;SDS011;33950;48.154;16.316;2022-12-29T16:23:39;71.68;;;30.52;;
48161;SDS011;33950;48.154;16.316;2022-12-29T16:26:29;70.35;;;30.52;;
48161;SDS011;33950;48.154;16.316;2022-12-29T16:29:15;71.70;;;29.67;;
48161;SDS011;33950;48.154;16.316;2022-12-29T16:32:03;69.82;;;29.40;;
48161;SDS011;33950;48.154;16.316;2022-12-29T16:35:11;69.28;;;28.88;;
48161;SDS011;33950;48.154;16.316;2022-12-29T16:38:12;75.20;;;31.45;;
48161;SDS011;33950;48.154;16.316;2022-12-29T16:41:00;76.70;;;30.45;;
48161;SDS011;33950;48.154;16.316;2022-12-29T16:43:47;79.03;;;32.13;;